Akron, Pennsylvania
Current Conditions -  °F | °C
As of 2:53 PM on Thursday 30 Oct 2014 (Local Time) from KLNS Reporting Station
Overcast Overcast  
Wind Chill: 54°   Ceiling: 6000
Heat Index: 54°   Visibility: 10mi
Dew Point: 38°   Wind: 10mph
Humidity: 55%   Direction: 310°NW
Pressure: 30.01"   Gusts: NA
Location:  40.16°N, 76.2°W
Report Text: KLNS 301853Z 31009KT 10SM FEW045 OVC060 12/03 A3001 RMK AO2 SLP162 T01220033
Loading
Personal Weather Stations






























Interactive Weather Map
Tropical Storm Tracking
New forecast layout! Learn more

10-Day Weather Forecast

Advertisements
Track Severe Weather on mobile